Time;durP1;ratioP1;P1;durP2;ratioP2;P2;SDS_P1;SDS_P2;PMS_P1;PMS_P2;Temp;Humidity;BMP_temperature;BMP_pressure;BME280_temperature;BME280_humidity;BME280_pressure;Samples;Min_cycle;Max_cycle;Signal;HPM_P1;HPM_P2
2023/08/22 00:00:27;;;;;;;11.68;3.60;;;25.70;99.90;;;;;;5071343;28;20036;-59
2023/08/22 00:02:54;;;;;;;10.73;3.35;;;25.60;99.90;;;;;;5071415;28;20033;-59
2023/08/22 00:05:21;;;;;;;8.73;2.90;;;25.60;99.90;;;;;;5071301;28;20500;-59
2023/08/22 00:07:47;;;;;;;11.40;3.47;;;25.70;99.90;;;;;;5071112;28;20032;-59
2023/08/22 00:10:14;;;;;;;8.88;3.10;;;25.60;99.90;;;;;;5071638;28;20029;-59
2023/08/22 00:12:40;;;;;;;9.23;3.28;;;25.60;99.90;;;;;;5071599;28;20032;-59
2023/08/22 00:15:09;;;;;;;8.30;3.40;;;25.60;99.90;;;;;;5071110;28;20546;-59
2023/08/22 00:17:44;;;;;;;9.77;3.45;;;25.50;99.90;;;;;;5071709;28;20624;-59
2023/08/22 00:20:11;;;;;;;9.25;3.35;;;25.30;99.90;;;;;;5071000;28;20013;-59
2023/08/22 00:22:37;;;;;;;12.63;3.50;;;25.00;99.90;;;;;;5071012;28;20613;-59
2023/08/22 00:25:07;;;;;;;10.63;3.38;;;24.80;99.90;;;;;;5071119;28;20024;-59
2023/08/22 00:27:34;;;;;;;8.23;3.33;;;24.70;99.90;;;;;;5071405;28;20060;-59
2023/08/22 00:29:59;;;;;;;8.50;3.20;;;24.70;99.90;;;;;;5070904;28;20016;-59
2023/08/22 00:32:25;;;;;;;9.57;3.45;;;24.60;99.90;;;;;;5071006;28;20539;-59
2023/08/22 00:34:51;;;;;;;8.70;3.78;;;24.50;99.90;;;;;;5070944;28;20036;-59
2023/08/22 00:37:18;;;;;;;9.25;3.25;;;24.40;99.90;;;;;;5071201;28;20092;-59
2023/08/22 00:39:44;;;;;;;8.68;3.22;;;24.30;99.90;;;;;;5070991;28;20020;-59
2023/08/22 00:42:09;;;;;;;9.55;3.30;;;24.30;99.90;;;;;;5071084;28;20039;-59
2023/08/22 00:44:35;;;;;;;9.95;3.50;;;24.20;99.90;;;;;;5070937;28;20074;-59
2023/08/22 00:47:02;;;;;;;10.07;3.05;;;24.20;99.90;;;;;;5071315;28;20037;-59
2023/08/22 00:49:28;;;;;;;13.38;3.33;;;24.20;99.90;;;;;;5070890;28;20397;-59
2023/08/22 00:51:56;;;;;;;10.80;3.20;;;24.20;99.90;;;;;;5070552;28;20024;-59
2023/08/22 00:54:24;;;;;;;9.68;3.33;;;24.20;99.90;;;;;;5052737;28;20533;-59
2023/08/22 00:56:50;;;;;;;11.23;3.70;;;24.20;99.90;;;;;;5070909;28;20016;-59
2023/08/22 00:59:16;;;;;;;11.40;3.90;;;24.40;99.90;;;;;;5071055;28;20029;-59
2023/08/22 01:01:42;;;;;;;12.40;3.55;;;24.60;99.90;;;;;;5070880;28;20025;-59
2023/08/22 01:04:08;;;;;;;14.50;4.90;;;24.60;99.90;;;;;;5071097;28;20020;-58
2023/08/22 01:06:50;;;;;;;16.38;4.47;;;24.70;99.90;;;;;;5070602;28;20075;-59
2023/08/22 01:09:31;;;;;;;13.25;4.75;;;24.80;99.90;;;;;;5070826;28;20430;-59
2023/08/22 01:12:06;;;;;;;18.88;4.50;;;24.80;99.90;;;;;;5070730;28;20060;-59
2023/08/22 01:14:38;;;;;;;11.02;4.10;;;24.80;99.90;;;;;;5070661;28;20450;-59
2023/08/22 01:17:06;;;;;;;10.82;3.70;;;24.80;99.90;;;;;;5071071;28;20082;-59
2023/08/22 01:19:32;;;;;;;13.48;3.72;;;24.80;99.90;;;;;;5070883;28;20439;-59
2023/08/22 01:21:58;;;;;;;13.10;3.13;;;24.80;99.90;;;;;;5070429;28;20074;-59
2023/08/22 01:24:23;;;;;;;11.52;3.58;;;24.80;99.90;;;;;;5070533;28;20078;-59
2023/08/22 01:26:49;;;;;;;11.30;3.00;;;24.70;99.90;;;;;;5070763;28;20499;-59
2023/08/22 01:29:26;;;;;;;12.23;3.05;;;24.70;99.90;;;;;;5070709;28;20033;-59
2023/08/22 01:32:26;;;;;;;10.20;2.90;;;24.80;99.90;;;;;;5070517;28;20028;-59
2023/08/22 01:34:54;;;;;;;9.98;3.33;;;24.90;99.90;;;;;;5064786;28;20539;-59
2023/08/22 01:37:23;;;;;;;10.95;3.20;;;24.80;99.90;;;;;;5070483;28;20499;-59
2023/08/22 01:39:55;;;;;;;12.75;3.40;;;24.70;99.90;;;;;;5070761;28;20024;-59
2023/08/22 01:42:22;;;;;;;8.70;2.75;;;24.50;99.90;;;;;;5072441;28;20056;-59
2023/08/22 01:44:48;;;;;;;11.73;3.22;;;24.30;99.90;;;;;;5074121;28;20036;-58
2023/08/22 01:47:14;;;;;;;11.68;3.30;;;24.20;99.90;;;;;;5074454;28;20374;-59
2023/08/22 01:49:39;;;;;;;10.40;3.38;;;24.20;99.90;;;;;;5073544;28;20032;-60
2023/08/22 01:52:05;;;;;;;10.82;3.30;;;24.20;99.90;;;;;;5074326;28;20115;-59
2023/08/22 01:54:31;;;;;;;10.40;3.28;;;24.20;99.90;;;;;;5073912;28;20028;-59
2023/08/22 01:56:57;;;;;;;9.93;3.63;;;24.20;99.90;;;;;;5073793;28;20032;-59
2023/08/22 01:59:22;;;;;;;11.27;3.10;;;24.00;99.90;;;;;;5073901;28;20070;-59
2023/08/22 02:01:48;;;;;;;13.65;3.40;;;24.00;99.90;;;;;;5073801;28;20488;-59
2023/08/22 02:04:13;;;;;;;11.43;2.88;;;23.90;99.90;;;;;;5073381;28;20016;-59
2023/08/22 02:06:39;;;;;;;8.55;2.92;;;24.00;99.90;;;;;;5073738;28;20036;-59
2023/08/22 02:09:05;;;;;;;10.95;3.13;;;24.00;99.90;;;;;;5073866;28;20027;-59
2023/08/22 02:11:31;;;;;;;13.85;3.67;;;23.90;99.90;;;;;;5073625;28;20090;-59
2023/08/22 02:13:56;;;;;;;11.00;3.05;;;23.80;99.90;;;;;;5073414;28;20234;-60
2023/08/22 02:16:23;;;;;;;10.10;3.30;;;23.90;99.90;;;;;;5073326;28;20031;-59
2023/08/22 02:18:48;;;;;;;10.90;3.17;;;24.10;99.90;;;;;;5073190;28;20029;-58
2023/08/22 02:21:14;;;;;;;13.27;3.53;;;24.30;99.90;;;;;;5053839;28;20021;-59
2023/08/22 02:23:40;;;;;;;8.88;2.85;;;24.40;99.90;;;;;;5052996;28;20040;-59
2023/08/22 02:26:05;;;;;;;11.38;3.20;;;24.40;99.90;;;;;;5053219;28;20434;-59
2023/08/22 02:28:31;;;;;;;11.27;3.60;;;24.50;99.90;;;;;;5053160;28;20414;-59
2023/08/22 02:30:57;;;;;;;12.13;3.50;;;24.60;99.90;;;;;;5053041;28;20055;-59
2023/08/22 02:33:23;;;;;;;11.00;3.00;;;24.50;99.90;;;;;;5053018;28;20134;-59
2023/08/22 02:35:49;;;;;;;12.10;2.90;;;24.30;99.90;;;;;;5053245;28;20013;-59
2023/08/22 02:38:15;;;;;;;10.07;3.13;;;24.20;99.90;;;;;;5052985;28;20509;-59
2023/08/22 02:40:41;;;;;;;11.95;3.00;;;24.20;99.90;;;;;;5053159;28;20021;-59
2023/08/22 02:43:06;;;;;;;13.65;3.42;;;24.20;99.90;;;;;;5052920;28;20639;-59
2023/08/22 02:45:32;;;;;;;10.75;2.97;;;24.20;99.90;;;;;;5053168;28;20017;-58
2023/08/22 02:47:57;;;;;;;9.85;2.75;;;24.20;99.90;;;;;;5052680;28;20029;-58
2023/08/22 02:50:23;;;;;;;12.18;3.40;;;24.10;99.90;;;;;;5051761;28;20074;-59
2023/08/22 02:52:52;;;;;;;10.90;3.10;;;24.00;99.90;;;;;;5052377;28;20037;-59
2023/08/22 02:55:18;;;;;;;10.93;3.13;;;24.10;99.90;;;;;;5052842;28;20111;-59
2023/08/22 02:57:44;;;;;;;9.75;2.83;;;23.80;99.90;;;;;;5052823;28;20112;-59
2023/08/22 03:00:11;;;;;;;11.48;3.17;;;23.60;99.90;;;;;;5052671;28;20021;-59
2023/08/22 03:02:37;;;;;;;10.10;2.90;;;23.50;99.90;;;;;;5052724;28;20078;-59
2023/08/22 03:05:06;;;;;;;14.43;3.13;;;23.40;99.90;;;;;;5052550;28;20033;-59
2023/08/22 03:07:32;;;;;;;8.23;3.00;;;23.30;99.90;;;;;;5052556;28;20021;-59
2023/08/22 03:09:58;;;;;;;9.80;3.00;;;23.20;99.90;;;;;;5052462;28;20025;-59
2023/08/22 03:12:24;;;;;;;9.00;2.80;;;23.10;99.90;;;;;;5052265;28;20025;-59
2023/08/22 03:14:49;;;;;;;10.20;3.17;;;23.10;99.90;;;;;;5060328;28;20028;-59
2023/08/22 03:17:15;;;;;;;9.55;2.97;;;23.10;99.90;;;;;;5072290;28;20546;-60
2023/08/22 03:19:41;;;;;;;7.28;2.53;;;23.10;99.90;;;;;;5072581;28;20449;-59
2023/08/22 03:22:06;;;;;;;7.38;2.50;;;23.10;99.90;;;;;;5072263;28;20036;-59
2023/08/22 03:24:32;;;;;;;8.45;2.35;;;23.00;99.90;;;;;;5072173;28;20036;-59
2023/08/22 03:26:58;;;;;;;10.18;2.83;;;23.10;99.90;;;;;;5071938;28;20080;-59
2023/08/22 03:29:24;;;;;;;7.95;2.50;;;23.10;99.90;;;;;;5071959;28;20031;-59
2023/08/22 03:31:49;;;;;;;8.23;2.33;;;23.20;99.90;;;;;;5072104;28;20028;-59
2023/08/22 03:34:15;;;;;;;7.28;2.70;;;23.20;99.90;;;;;;5071935;28;20026;-59
2023/08/22 03:36:41;;;;;;;10.63;3.28;;;23.40;99.90;;;;;;5072090;28;20029;-59
2023/08/22 03:39:07;;;;;;;10.57;3.05;;;23.50;99.90;;;;;;5071877;28;20119;-58
2023/08/22 03:41:32;;;;;;;9.65;2.45;;;23.60;99.90;;;;;;5071794;28;20426;-59
2023/08/22 03:43:58;;;;;;;8.35;2.60;;;23.80;99.90;;;;;;5072135;28;20047;-58
2023/08/22 03:46:24;;;;;;;6.78;2.25;;;23.80;99.90;;;;;;5071412;28;20036;-59
2023/08/22 03:48:49;;;;;;;11.75;2.80;;;23.90;99.90;;;;;;5071809;28;20021;-59
2023/08/22 03:51:15;;;;;;;10.50;2.67;;;24.10;99.90;;;;;;5071697;28;20058;-59
2023/08/22 03:53:41;;;;;;;6.93;2.40;;;24.00;99.90;;;;;;5071528;28;20117;-59
2023/08/22 03:56:06;;;;;;;10.15;2.97;;;24.00;99.90;;;;;;5071629;28;20043;-59
2023/08/22 03:58:33;;;;;;;8.43;2.47;;;24.00;99.90;;;;;;5063717;28;20016;-58
2023/08/22 04:01:03;;;;;;;7.15;2.58;;;23.90;99.90;;;;;;5071177;28;20035;-59
2023/08/22 04:03:29;;;;;;;9.18;2.50;;;24.10;99.90;;;;;;5071448;28;20020;-58
2023/08/22 04:05:55;;;;;;;9.60;2.78;;;24.00;99.90;;;;;;5070882;28;20025;-60
2023/08/22 04:08:21;;;;;;;11.48;2.40;;;24.20;99.90;;;;;;5071938;28;20031;-59
2023/08/22 04:10:46;;;;;;;9.60;2.90;;;24.20;99.90;;;;;;5071280;28;20028;-59
2023/08/22 04:13:12;;;;;;;9.35;2.90;;;24.00;99.90;;;;;;5071684;28;20036;-60
2023/08/22 04:15:39;;;;;;;11.15;3.10;;;24.00;99.90;;;;;;5070979;28;20024;-58
2023/08/22 04:18:05;;;;;;;7.50;2.40;;;23.80;99.90;;;;;;5071294;28;20036;-58
2023/08/22 04:20:31;;;;;;;8.68;2.60;;;23.60;99.90;;;;;;5071318;28;20431;-59
2023/08/22 04:22:57;;;;;;;7.95;2.65;;;23.50;99.90;;;;;;5071285;28;20028;-59
2023/08/22 04:25:22;;;;;;;8.90;2.65;;;23.40;99.90;;;;;;5071744;28;20052;-58
2023/08/22 04:27:48;;;;;;;7.32;2.78;;;23.30;99.90;;;;;;5071056;28;20608;-59
2023/08/22 04:30:14;;;;;;;9.38;2.72;;;23.20;99.90;;;;;;5070750;28;20400;-59
2023/08/22 04:32:39;;;;;;;8.27;2.60;;;23.10;99.90;;;;;;5071183;28;20107;-59
2023/08/22 04:35:05;;;;;;;9.43;2.90;;;23.10;99.90;;;;;;5071448;28;20021;-59
2023/08/22 04:37:31;;;;;;;13.40;2.72;;;23.10;99.90;;;;;;5071041;28;20039;-59
2023/08/22 04:39:57;;;;;;;10.23;2.88;;;23.10;99.90;;;;;;5071255;28;20040;-59
2023/08/22 04:42:24;;;;;;;9.60;2.50;;;23.10;99.90;;;;;;5070609;28;20143;-59
2023/08/22 04:44:49;;;;;;;9.45;2.97;;;23.00;99.90;;;;;;5070906;28;20032;-59
2023/08/22 04:47:15;;;;;;;6.57;2.50;;;23.00;99.90;;;;;;5070994;28;20029;-59
2023/08/22 04:49:41;;;;;;;9.95;2.80;;;23.00;99.90;;;;;;5071304;28;20025;-59
2023/08/22 04:52:07;;;;;;;10.20;2.70;;;23.00;99.90;;;;;;5070991;28;20025;-59
2023/08/22 04:54:33;;;;;;;10.85;3.10;;;23.00;99.90;;;;;;5062736;28;20038;-58
2023/08/22 04:56:59;;;;;;;10.18;2.80;;;23.00;99.90;;;;;;5071298;28;20012;-59
2023/08/22 04:59:24;;;;;;;9.80;2.92;;;23.30;99.90;;;;;;5070604;28;20043;-58
2023/08/22 05:01:50;;;;;;;9.43;2.53;;;23.50;99.90;;;;;;5070879;28;20024;-59
2023/08/22 05:04:17;;;;;;;12.07;2.85;;;23.70;99.90;;;;;;5070897;28;20120;-59
2023/08/22 05:06:42;;;;;;;10.95;2.65;;;23.80;99.90;;;;;;5070989;28;20423;-58
2023/08/22 05:09:09;;;;;;;9.10;3.10;;;23.70;99.90;;;;;;5052989;28;20021;-59
2023/08/22 05:11:35;;;;;;;11.65;3.13;;;23.70;99.90;;;;;;5070750;28;20017;-59
2023/08/22 05:14:02;;;;;;;8.48;2.72;;;23.80;99.90;;;;;;5070708;28;20071;-59
2023/08/22 05:16:28;;;;;;;9.57;3.13;;;23.80;99.90;;;;;;5071281;28;20021;-59
2023/08/22 05:18:53;;;;;;;13.35;3.00;;;23.90;99.90;;;;;;5074533;28;20029;-59
2023/08/22 05:21:19;;;;;;;11.98;3.05;;;24.00;99.90;;;;;;5074717;28;20071;-59
2023/08/22 05:23:44;;;;;;;10.43;2.38;;;24.00;99.90;;;;;;5074365;28;20028;-58
2023/08/22 05:26:10;;;;;;;10.93;2.80;;;23.90;99.90;;;;;;5074327;28;20045;-59
2023/08/22 05:28:36;;;;;;;9.45;2.72;;;23.90;99.90;;;;;;5074115;28;20059;-59
2023/08/22 05:31:01;;;;;;;6.93;2.60;;;23.80;99.90;;;;;;5074700;28;20028;-59
2023/08/22 05:33:27;;;;;;;9.98;2.95;;;24.00;99.90;;;;;;5074201;28;20048;-59
2023/08/22 05:35:53;;;;;;;9.80;2.63;;;23.80;99.90;;;;;;5074384;28;20021;-59
2023/08/22 05:38:18;;;;;;;8.80;2.70;;;23.60;99.90;;;;;;5074407;28;20036;-59
2023/08/22 05:40:44;;;;;;;10.82;2.92;;;23.50;99.90;;;;;;5073958;28;20013;-59
2023/08/22 05:43:10;;;;;;;10.15;2.72;;;23.30;99.90;;;;;;5074275;28;20028;-59
2023/08/22 05:45:35;;;;;;;9.15;3.08;;;23.20;99.90;;;;;;5056142;28;20020;-59
2023/08/22 05:48:01;;;;;;;9.45;3.05;;;23.20;99.90;;;;;;5074098;28;20465;-59
2023/08/22 05:50:27;;;;;;;10.80;2.63;;;23.10;99.90;;;;;;5073891;28;20397;-59
2023/08/22 05:52:52;;;;;;;6.60;2.40;;;23.10;99.90;;;;;;5073716;28;20093;-58
2023/08/22 05:55:18;;;;;;;8.50;2.55;;;23.10;99.90;;;;;;5073640;28;20048;-58
2023/08/22 05:57:44;;;;;;;7.05;2.63;;;23.10;99.90;;;;;;5074150;28;20013;-57
2023/08/22 06:00:10;;;;;;;11.63;2.65;;;23.10;99.90;;;;;;5073809;28;20436;-59
2023/08/22 06:02:36;;;;;;;7.65;2.60;;;23.10;99.90;;;;;;5055747;28;20025;-59
2023/08/22 06:05:02;;;;;;;12.02;2.97;;;23.10;99.90;;;;;;5074027;28;20040;-58
2023/08/22 06:07:28;;;;;;;10.43;2.70;;;23.10;99.90;;;;;;5073575;28;20067;-59
2023/08/22 06:09:53;;;;;;;8.13;2.83;;;23.10;99.90;;;;;;5073348;28;20478;-59
2023/08/22 06:12:19;;;;;;;6.40;2.53;;;23.10;99.90;;;;;;5073362;28;20025;-58
2023/08/22 06:14:44;;;;;;;9.88;2.95;;;23.10;99.90;;;;;;5073387;28;20032;-58
2023/08/22 06:17:10;;;;;;;15.60;3.50;;;23.20;99.90;;;;;;5073542;28;20027;-59
2023/08/22 06:19:36;;;;;;;10.13;2.70;;;23.40;99.90;;;;;;5073794;28;20063;-59
2023/08/22 06:22:02;;;;;;;10.02;2.92;;;23.70;99.90;;;;;;5073469;28;20500;-59
2023/08/22 06:24:27;;;;;;;11.02;2.70;;;23.80;99.90;;;;;;5073069;28;20048;-59
2023/08/22 06:26:53;;;;;;;10.68;2.83;;;24.00;99.90;;;;;;5072914;28;20083;-59
2023/08/22 06:29:19;;;;;;;8.32;2.40;;;24.00;99.90;;;;;;5073024;28;20031;-59
2023/08/22 06:31:44;;;;;;;9.55;2.80;;;24.00;99.90;;;;;;5073637;28;20024;-57
2023/08/22 06:34:10;;;;;;;8.10;2.88;;;24.10;99.90;;;;;;5073093;28;20072;-59
2023/08/22 06:36:36;;;;;;;6.25;2.53;;;24.20;99.90;;;;;;5073367;28;20028;-58
2023/08/22 06:39:04;;;;;;;8.75;2.83;;;24.20;99.90;;;;;;5072908;28;20480;-58
2023/08/22 06:41:30;;;;;;;10.90;2.70;;;24.20;99.90;;;;;;5073076;28;20099;-58
2023/08/22 06:43:55;;;;;;;9.57;3.10;;;24.20;99.90;;;;;;5073051;28;20115;-59
2023/08/22 06:46:22;;;;;;;9.60;2.88;;;24.30;99.90;;;;;;5073446;28;20081;-59
2023/08/22 06:48:50;;;;;;;7.85;2.72;;;24.20;99.90;;;;;;5072931;28;20086;-58
2023/08/22 06:51:16;;;;;;;7.45;2.33;;;24.30;99.90;;;;;;5072769;28;20107;-59
2023/08/22 06:53:42;;;;;;;6.60;2.30;;;24.30;99.90;;;;;;5072701;28;20382;-59
2023/08/22 06:56:08;;;;;;;6.25;2.63;;;24.20;99.90;;;;;;5072773;28;20032;-59
2023/08/22 06:58:34;;;;;;;8.00;2.50;;;24.00;99.90;;;;;;5054821;28;20032;-59
2023/08/22 07:00:59;;;;;;;7.50;2.70;;;23.90;99.90;;;;;;5072758;28;20082;-58
2023/08/22 07:03:25;;;;;;;8.32;2.78;;;23.70;99.90;;;;;;5072572;28;20139;-58
2023/08/22 07:05:54;;;;;;;8.23;2.53;;;23.70;99.90;;;;;;5072662;28;20055;-59
2023/08/22 07:08:20;;;;;;;6.97;2.30;;;23.60;99.90;;;;;;5072675;28;20077;-59
2023/08/22 07:10:46;;;;;;;9.30;2.58;;;23.60;99.90;;;;;;5072389;28;20020;-58
2023/08/22 07:13:11;;;;;;;8.50;2.95;;;23.60;99.90;;;;;;5072273;28;20127;-59
2023/08/22 07:15:37;;;;;;;7.03;2.28;;;23.60;99.90;;;;;;5072272;28;20123;-59
2023/08/22 07:18:03;;;;;;;7.90;2.65;;;23.60;99.90;;;;;;5072279;28;20090;-58
2023/08/22 07:20:29;;;;;;;8.95;2.67;;;23.60;99.90;;;;;;5072254;28;20025;-58
2023/08/22 07:22:54;;;;;;;8.07;2.47;;;23.60;99.90;;;;;;5072039;28;20035;-58
2023/08/22 07:25:20;;;;;;;6.45;2.20;;;23.60;99.90;;;;;;5070354;28;20024;-59
2023/08/22 07:27:46;;;;;;;9.23;2.92;;;23.60;99.90;;;;;;5065955;28;20072;-58
2023/08/22 07:30:12;;;;;;;8.55;2.40;;;23.70;99.90;;;;;;5072415;28;20040;-58
2023/08/22 07:32:37;;;;;;;7.35;2.90;;;23.70;99.90;;;;;;5071886;28;20031;-58
2023/08/22 07:35:05;;;;;;;8.63;2.90;;;23.70;99.90;;;;;;5071961;28;20048;-58
2023/08/22 07:37:31;;;;;;;6.15;2.53;;;23.90;99.90;;;;;;5072042;28;20040;-59
2023/08/22 07:39:57;;;;;;;9.20;2.97;;;24.10;99.90;;;;;;5071239;28;20060;-58
2023/08/22 07:42:22;;;;;;;6.32;2.53;;;24.20;99.90;;;;;;5071803;28;20100;-59
2023/08/22 07:44:48;;;;;;;7.30;2.38;;;24.50;99.90;;;;;;5071826;28;20504;-58
2023/08/22 07:47:14;;;;;;;8.27;2.67;;;24.60;99.90;;;;;;5072106;28;20420;-59
2023/08/22 07:49:39;;;;;;;9.10;3.05;;;24.70;99.90;;;;;;5071658;28;20528;-59
2023/08/22 07:52:05;;;;;;;7.30;2.47;;;24.70;99.90;;;;;;5071575;28;20146;-58
2023/08/22 07:54:32;;;;;;;7.13;2.70;;;24.80;99.90;;;;;;5071714;28;20111;-59
2023/08/22 07:56:57;;;;;;;9.68;2.67;;;24.90;99.90;;;;;;5071645;28;20298;-59
2023/08/22 07:59:23;;;;;;;8.05;2.95;;;24.80;99.90;;;;;;5071485;28;20025;-58
2023/08/22 08:01:49;;;;;;;7.35;3.10;;;25.00;99.90;;;;;;5071734;28;20024;-59
2023/08/22 08:04:15;;;;;;;7.43;2.38;;;25.00;99.90;;;;;;5071538;28;20039;-58
2023/08/22 08:06:41;;;;;;;10.40;3.03;;;24.90;99.90;;;;;;5071082;28;20024;-58
2023/08/22 08:09:07;;;;;;;9.95;3.28;;;25.10;99.90;;;;;;5071529;28;20035;-58
2023/08/22 08:11:33;;;;;;;10.65;2.75;;;25.00;99.90;;;;;;5071366;28;20016;-58
2023/08/22 08:13:59;;;;;;;6.63;2.90;;;25.10;99.90;;;;;;5071162;28;20485;-59
2023/08/22 08:16:25;;;;;;;8.00;3.08;;;24.90;99.90;;;;;;5071760;28;20027;-58
2023/08/22 08:18:54;;;;;;;8.82;3.20;;;24.80;99.90;;;;;;5071181;28;20382;-57
2023/08/22 08:21:21;;;;;;;10.05;2.75;;;24.70;99.90;;;;;;5071023;28;20020;-59
2023/08/22 08:23:46;;;;;;;8.23;2.67;;;24.60;99.90;;;;;;5071248;28;20036;-59
2023/08/22 08:26:12;;;;;;;8.65;2.80;;;24.50;99.90;;;;;;5071499;28;20165;-59
2023/08/22 08:28:38;;;;;;;7.57;3.20;;;24.50;99.90;;;;;;5071166;28;20032;-58
2023/08/22 08:31:04;;;;;;;5.88;2.75;;;24.50;99.90;;;;;;5071129;28;20466;-59
2023/08/22 08:33:31;;;;;;;9.68;3.08;;;24.50;99.90;;;;;;5071261;28;20040;-58
2023/08/22 08:35:57;;;;;;;7.18;2.92;;;24.50;99.90;;;;;;5070878;28;20099;-58
2023/08/22 08:38:22;;;;;;;8.80;3.28;;;24.60;99.90;;;;;;5071050;28;20029;-58
2023/08/22 08:40:48;;;;;;;8.15;3.03;;;24.60;99.90;;;;;;5071125;28;20499;-58
2023/08/22 08:43:14;;;;;;;9.13;3.40;;;24.70;99.90;;;;;;5071157;28;20497;-59
2023/08/22 08:45:40;;;;;;;7.95;3.15;;;24.80;99.90;;;;;;5071306;28;20094;-58
2023/08/22 08:48:07;;;;;;;6.95;2.90;;;24.70;99.90;;;;;;5071071;28;20032;-59
2023/08/22 08:50:33;;;;;;;7.72;3.45;;;24.80;99.90;;;;;;5071471;28;20552;-59
2023/08/22 08:52:59;;;;;;;5.75;2.80;;;24.80;99.90;;;;;;5075092;28;20063;-58
2023/08/22 08:55:25;;;;;;;8.05;3.50;;;24.80;99.90;;;;;;5075017;28;20492;-58
2023/08/22 08:57:56;;;;;;;7.88;3.13;;;24.90;99.90;;;;;;5075131;28;20039;-58
2023/08/22 09:00:22;;;;;;;7.68;3.25;;;25.20;99.90;;;;;;5074957;28;20025;-58
2023/08/22 09:02:47;;;;;;;6.82;3.15;;;25.30;99.90;;;;;;5075207;28;20111;-59
2023/08/22 09:05:15;;;;;;;10.00;3.42;;;25.50;99.90;;;;;;5074556;28;20095;-58
2023/08/22 09:07:43;;;;;;;8.00;3.47;;;25.60;99.90;;;;;;5074840;28;20480;-58
2023/08/22 09:10:09;;;;;;;5.45;3.30;;;25.70;99.90;;;;;;5074808;28;20369;-58
2023/08/22 09:12:35;;;;;;;6.95;3.30;;;25.70;99.90;;;;;;5074650;28;20052;-58
2023/08/22 09:15:02;;;;;;;7.05;3.53;;;25.80;99.90;;;;;;5074483;28;20036;-58
2023/08/22 09:17:29;;;;;;;9.30;3.30;;;25.90;99.90;;;;;;5074835;28;20056;-58
2023/08/22 09:19:55;;;;;;;5.90;3.05;;;25.80;99.90;;;;;;5074307;28;20025;-58
2023/08/22 09:22:29;;;;;;;5.20;2.92;;;26.00;99.90;;;;;;5074454;28;20039;-58
2023/08/22 09:24:55;;;;;;;6.60;3.10;;;26.00;99.90;;;;;;5074362;28;20055;-58
2023/08/22 09:27:27;;;;;;;8.02;3.55;;;26.10;99.90;;;;;;5074265;28;20064;-59
2023/08/22 09:30:00;;;;;;;7.40;3.30;;;26.30;99.90;;;;;;5074484;28;20029;-58
2023/08/22 09:32:26;;;;;;;7.88;3.20;;;26.20;99.90;;;;;;5074080;28;20040;-58
2023/08/22 09:34:57;;;;;;;5.85;2.90;;;26.20;99.90;;;;;;5074110;28;20032;-59
2023/08/22 09:37:36;;;;;;;6.18;2.97;;;26.30;99.90;;;;;;5074541;28;20100;-58
2023/08/22 09:40:08;;;;;;;5.47;2.80;;;26.50;99.90;;;;;;5074183;28;20025;-58
2023/08/22 09:42:39;;;;;;;5.10;3.08;;;26.50;99.90;;;;;;5074229;28;20107;-58
2023/08/22 09:45:05;;;;;;;6.38;3.60;;;26.40;99.90;;;;;;5074019;28;20031;-58
2023/08/22 09:47:32;;;;;;;6.05;2.88;;;26.40;99.90;;;;;;5073500;28;20452;-58
2023/08/22 09:50:04;;;;;;;5.55;3.17;;;26.30;99.90;;;;;;5074151;28;20584;-59
2023/08/22 09:52:36;;;;;;;6.60;3.10;;;26.30;99.90;;;;;;5074463;28;20477;-59
2023/08/22 09:55:02;;;;;;;6.97;2.72;;;26.30;99.90;;;;;;5073662;28;20037;-59
2023/08/22 09:57:29;;;;;;;5.47;3.10;;;26.30;99.90;;;;;;5074269;28;20024;-59
2023/08/22 09:59:55;;;;;;;6.78;3.08;;;26.50;99.90;;;;;;5073849;28;20020;-58
2023/08/22 10:02:22;;;;;;;5.85;3.00;;;26.70;99.90;;;;;;5072392;28;20387;-59
2023/08/22 10:04:48;;;;;;;5.55;3.25;;;26.80;99.90;;;;;;5073657;28;20036;-58
2023/08/22 10:07:14;;;;;;;5.45;3.30;;;26.80;99.90;;;;;;5073774;28;20047;-58
2023/08/22 10:09:41;;;;;;;9.80;3.10;;;26.80;99.90;;;;;;5073723;28;20477;-59
2023/08/22 10:12:11;;;;;;;8.43;3.33;;;26.90;99.90;;;;;;5073345;28;20473;-59
2023/08/22 10:15:05;;;;;;;4.72;2.85;;;26.90;99.90;;;;;;5073754;28;20094;-59
2023/08/22 10:17:31;;;;;;;;;;;26.90;99.90;;;;;;5070576;28;20036;-59
2023/08/22 10:20:04;;;;;;;8.10;3.30;;;27.00;99.90;;;;;;5073838;28;19912;-59
2023/08/22 10:22:33;;;;;;;5.85;3.38;;;27.30;99.90;;;;;;5073612;28;20025;-58
2023/08/22 10:25:04;;;;;;;8.60;3.45;;;27.50;99.90;;;;;;5055401;28;20408;-58
2023/08/22 10:27:30;;;;;;;7.53;3.60;;;27.50;99.90;;;;;;5055300;28;20052;-58
2023/08/22 10:30:14;;;;;;;7.50;3.80;;;27.50;99.90;;;;;;5073392;28;20025;-58
2023/08/22 10:33:04;;;;;;;9.15;3.90;;;27.50;99.90;;;;;;5072695;28;20036;-59
2023/08/22 10:35:29;;;;;;;8.80;3.60;;;27.80;99.90;;;;;;5073089;28;20455;-59
2023/08/22 10:37:56;;;;;;;9.82;3.58;;;27.90;99.90;;;;;;5073664;28;20028;-58
2023/08/22 10:40:27;;;;;;;12.57;4.25;;;28.20;99.90;;;;;;5073259;28;20420;-59
2023/08/22 10:43:03;;;;;;;14.50;3.80;;;28.20;99.90;;;;;;5073026;28;20100;-58
2023/08/22 10:45:49;;;;;;;12.25;3.80;;;27.90;99.90;;;;;;5072742;28;20032;-58
2023/08/22 10:48:17;;;;;;;11.85;3.80;;;27.90;99.90;;;;;;5072849;28;20489;-58
2023/08/22 10:50:44;;;;;;;11.82;3.30;;;28.00;99.90;;;;;;5072908;28;20028;-58
2023/08/22 10:53:12;;;;;;;12.55;3.65;;;28.00;99.90;;;;;;5072882;28;20055;-59
2023/08/22 10:55:38;;;;;;;12.80;3.83;;;27.90;99.90;;;;;;5072802;28;20029;-58
2023/08/22 10:58:04;;;;;;;10.52;3.95;;;28.00;99.90;;;;;;5072591;28;20584;-59
2023/08/22 11:00:31;;;;;;;12.55;4.18;;;28.20;99.90;;;;;;5072435;28;20095;-58
2023/08/22 11:02:58;;;;;;;10.38;3.58;;;28.30;99.90;;;;;;5072622;28;20067;-59
2023/08/22 11:05:26;;;;;;;10.50;3.15;;;28.20;99.90;;;;;;5072996;28;20023;-59
2023/08/22 11:07:52;;;;;;;11.68;3.80;;;28.10;99.90;;;;;;5072544;28;20560;-59
2023/08/22 11:10:24;;;;;;;13.63;3.90;;;28.00;99.90;;;;;;5072617;28;20100;-59
2023/08/22 11:12:53;;;;;;;8.70;3.33;;;28.20;99.90;;;;;;5072349;28;20079;-59
2023/08/22 11:15:19;;;;;;;10.15;3.42;;;28.20;99.90;;;;;;5071822;28;20052;-59
2023/08/22 11:17:50;;;;;;;9.40;3.60;;;28.30;99.90;;;;;;5072388;28;20042;-59
2023/08/22 11:20:20;;;;;;;9.88;3.70;;;28.50;99.90;;;;;;5072222;28;20598;-59
2023/08/22 11:22:46;;;;;;;11.20;3.75;;;28.50;99.90;;;;;;5072237;28;20031;-59
2023/08/22 11:25:12;;;;;;;10.50;3.45;;;28.40;99.90;;;;;;5072615;28;20070;-60
2023/08/22 11:27:39;;;;;;;14.50;3.90;;;28.50;99.90;;;;;;5071817;28;20467;-59
2023/08/22 11:30:07;;;;;;;12.40;3.72;;;28.20;99.90;;;;;;5071826;28;20503;-58
2023/08/22 11:32:35;;;;;;;15.82;3.45;;;28.00;99.90;;;;;;5072007;28;20566;-59
2023/08/22 11:35:05;;;;;;;12.55;3.92;;;28.00;99.90;;;;;;5072330;28;20495;-59
2023/08/22 11:37:36;;;;;;;13.18;3.95;;;28.10;99.90;;;;;;5071971;28;20433;-57
2023/08/22 11:40:09;;;;;;;11.35;3.67;;;28.20;99.90;;;;;;5071902;28;20040;-58
2023/08/22 11:42:35;;;;;;;;;;;28.20;99.90;;;;;;5072470;28;20052;-59
2023/08/22 11:45:21;;;;;;;11.27;3.58;;;28.20;99.90;;;;;;5071842;28;19904;-57
2023/08/22 11:47:54;;;;;;;12.07;3.70;;;28.30;99.90;;;;;;5065566;28;20409;-59
2023/08/22 11:50:28;;;;;;;12.50;3.90;;;28.30;99.90;;;;;;5071704;28;20024;-59
2023/08/22 11:53:06;;;;;;;10.63;3.60;;;28.40;99.90;;;;;;5071756;28;20033;-59
2023/08/22 11:55:32;;;;;;;9.63;3.33;;;28.40;99.90;;;;;;5071362;28;20063;-58
2023/08/22 11:58:06;;;;;;;11.80;4.00;;;28.40;99.90;;;;;;5071388;28;20052;-59
2023/08/22 12:00:32;;;;;;;10.10;3.30;;;28.60;99.90;;;;;;5072054;28;20372;-58
2023/08/22 12:03:01;;;;;;;11.38;3.25;;;28.50;99.90;;;;;;5071501;28;20044;-59
2023/08/22 12:05:31;;;;;;;7.63;3.25;;;28.40;99.90;;;;;;5071454;28;20072;-59
2023/08/22 12:08:06;;;;;;;9.05;3.50;;;28.30;99.90;;;;;;5071643;28;20490;-59
2023/08/22 12:10:46;;;;;;;9.30;3.33;;;28.60;99.90;;;;;;5071233;28;20060;-58
2023/08/22 12:13:13;;;;;;;8.70;3.30;;;28.70;99.90;;;;;;5070850;28;20083;-59
2023/08/22 12:15:40;;;;;;;11.45;3.83;;;28.60;99.90;;;;;;5071597;28;20501;-59
2023/08/22 12:18:07;;;;;;;9.25;3.30;;;28.80;99.90;;;;;;5071527;28;20374;-60
2023/08/22 12:20:34;;;;;;;9.18;3.58;;;28.80;99.90;;;;;;5063091;28;20552;-58
2023/08/22 12:23:03;;;;;;;11.40;3.45;;;28.90;99.90;;;;;;5071517;28;20028;-59
2023/08/22 12:25:29;;;;;;;9.23;3.22;;;28.90;99.90;;;;;;5070826;28;20024;-59
2023/08/22 12:27:54;;;;;;;14.05;3.72;;;28.90;99.90;;;;;;5070764;28;20055;-59
2023/08/22 12:30:20;;;;;;;10.73;3.35;;;28.90;99.90;;;;;;5071215;28;20020;-59
2023/08/22 12:32:46;;;;;;;12.02;3.80;;;29.00;99.90;;;;;;5071214;28;20507;-59
2023/08/22 12:35:12;;;;;;;8.93;3.45;;;28.90;99.90;;;;;;5071678;28;20076;-59
2023/08/22 12:37:39;;;;;;;9.52;3.15;;;28.70;99.90;;;;;;5053196;28;20043;-59
2023/08/22 12:40:10;;;;;;;10.32;3.33;;;28.80;99.90;;;;;;5071088;28;20102;-58
2023/08/22 12:42:37;;;;;;;8.35;3.22;;;28.80;99.90;;;;;;5070858;28;20147;-59